Time;durP1;ratioP1;P1;durP2;ratioP2;P2;SDS_P1;SDS_P2;PMS_P1;PMS_P2;Temp;Humidity;BMP_temperature;BMP_pressure;BME280_temperature;BME280_humidity;BME280_pressure;Samples;Min_cycle;Max_cycle;Signal;HPM_P1;HPM_P2
2023/03/30 00:00:18;;;;;;;7.30;3.38;;;;;;;-145.50;100.00;65435.88;4908741;29;20056;-66
2023/03/30 00:02:48;;;;;;;10.45;3.00;;;;;;;-145.50;100.00;65435.88;4899513;29;20055;-67
2023/03/30 00:05:16;;;;;;;11.07;4.00;;;;;;;-145.50;100.00;65435.88;4905901;29;20048;-66
2023/03/30 00:07:44;;;;;;;7.40;3.47;;;;;;;-145.50;100.00;65435.88;4909362;29;20056;-68
2023/03/30 00:10:13;;;;;;;7.05;3.10;;;;;;;-145.50;100.00;65435.88;4904588;29;20051;-66
2023/03/30 00:12:42;;;;;;;7.60;3.10;;;;;;;-145.50;100.00;65435.88;4909607;29;20103;-68
2023/03/30 00:15:16;;;;;;;10.70;4.03;;;;;;;-145.50;100.00;65435.88;4901559;29;20087;-66
2023/03/30 00:17:43;;;;;;;8.13;3.40;;;;;;;-145.50;100.00;65435.88;4904602;29;20091;-66
2023/03/30 00:20:12;;;;;;;13.40;3.20;;;;;;;-145.50;100.00;65435.88;4904175;29;20106;-66
2023/03/30 00:22:40;;;;;;;7.78;3.33;;;;;;;-145.50;100.00;65435.88;4905656;29;20056;-67
2023/03/30 00:25:09;;;;;;;8.50;3.72;;;;;;;-145.50;100.00;65435.88;4904441;29;20104;-66
2023/03/30 00:27:37;;;;;;;6.35;3.08;;;;;;;-145.50;100.00;65435.88;4909228;29;20050;-66
2023/03/30 00:30:06;;;;;;;11.93;3.47;;;;;;;-145.50;100.00;65435.88;4906003;29;20497;-67
2023/03/30 00:32:33;;;;;;;9.13;3.30;;;;;;;-145.50;100.00;65435.88;4899443;29;20064;-66
2023/03/30 00:35:00;;;;;;;13.15;4.40;;;;;;;-145.50;100.00;65435.88;4905981;29;20096;-67
2023/03/30 00:37:27;;;;;;;7.57;2.75;;;;;;;-145.50;100.00;65435.88;4900999;29;20112;-66
2023/03/30 00:39:54;;;;;;;7.05;2.50;;;;;;;-145.50;100.00;65435.88;4909289;29;20110;-65
2023/03/30 00:42:20;;;;;;;4.00;2.33;;;;;;;-145.50;100.00;65435.88;4916185;29;20059;-66
2023/03/30 00:45:15;;;;;;;6.30;2.53;;;;;;;-145.50;100.00;65435.88;4902812;29;20056;-67
2023/03/30 00:47:47;;;;;;;9.18;3.10;;;;;;;-145.50;100.00;65435.88;4904660;29;20421;-66
2023/03/30 00:50:15;;;;;;;6.82;2.60;;;;;;;-145.50;100.00;65435.88;4896769;29;20071;-66
2023/03/30 00:52:43;;;;;;;;;;;;;;;-145.50;100.00;65435.88;4909693;29;20068;-66
2023/03/30 00:55:11;;;;;;;8.27;3.13;;;;;;;-145.50;100.00;65435.88;4901971;29;19956;-68
2023/03/30 00:57:41;;;;;;;6.45;2.60;;;;;;;-145.50;100.00;65435.88;4906801;29;20594;-67
2023/03/30 01:00:10;;;;;;;4.22;2.50;;;;;;;-145.50;100.00;65435.88;4891466;29;20048;-71
2023/03/30 01:02:47;;;;;;;8.63;2.70;;;;;;;-145.50;100.00;65435.88;4908556;29;20745;-71
2023/03/30 01:05:14;;;;;;;5.63;2.42;;;;;;;-145.50;100.00;65435.88;4908547;29;20457;-71
2023/03/30 01:07:45;;;;;;;7.68;2.70;;;;;;;-145.50;100.00;65435.88;4903052;29;20048;-71
2023/03/30 01:10:12;;;;;;;5.93;2.53;;;;;;;-145.50;100.00;65435.88;4908257;29;20131;-71
2023/03/30 01:12:39;;;;;;;8.07;3.40;;;;;;;-145.50;100.00;65435.88;4902646;29;20131;-72
2023/03/30 01:15:07;;;;;;;6.15;2.58;;;;;;;-145.50;100.00;65435.88;4909111;29;20059;-71
2023/03/30 01:17:59;;;;;;;5.83;2.50;;;;;;;-145.50;100.00;65435.88;4904926;29;20500;-71
2023/03/30 01:20:39;;;;;;;5.47;2.40;;;;;;;-145.50;100.00;65435.88;4909044;29;20100;-71
2023/03/30 01:23:34;;;;;;;6.05;2.47;;;;;;;-145.50;100.00;65435.88;4899849;29;20056;-71
2023/03/30 01:26:00;;;;;;;8.48;2.42;;;;;;;-145.50;100.00;65435.88;4905502;29;20360;-71
2023/03/30 01:28:56;;;;;;;5.13;2.38;;;;;;;-145.50;100.00;65435.88;4905777;29;20047;-71
2023/03/30 01:31:59;;;;;;;7.55;2.75;;;;;;;-145.50;100.00;65435.88;4913029;29;20060;-71
2023/03/30 01:35:01;;;;;;;3.70;2.15;;;;;;;-145.50;100.00;65435.88;4906825;29;20052;-72
2023/03/30 01:38:06;;;;;;;6.15;2.50;;;;;;;-145.50;100.00;65435.88;4905947;29;20062;-73
2023/03/30 01:40:47;;;;;;;9.45;2.70;;;;;;;-145.50;100.00;65435.88;4908621;29;20060;-74
2023/03/30 01:43:19;;;;;;;6.50;2.55;;;;;;;-145.50;100.00;65435.88;4909330;29;20463;-70
2023/03/30 01:45:46;;;;;;;4.93;2.40;;;;;;;-145.50;100.00;65435.88;4903612;29;20555;-70
2023/03/30 01:48:32;;;;;;;4.00;2.50;;;;;;;-145.50;100.00;65435.88;4912820;29;20071;-70
2023/03/30 01:51:05;;;;;;;10.27;2.63;;;;;;;-145.50;100.00;65435.88;4907972;29;20059;-70
2023/03/30 01:53:41;;;;;;;9.55;2.70;;;;;;;-145.50;100.00;65435.88;4902165;29;20819;-70
2023/03/30 01:56:35;;;;;;;5.85;2.63;;;;;;;-145.50;100.00;65435.88;4913414;29;20485;-69
2023/03/30 01:59:11;;;;;;;4.82;2.70;;;;;;;-145.50;100.00;65435.88;4909015;29;20054;-69
2023/03/30 02:01:41;;;;;;;5.82;2.33;;;;;;;-145.50;100.00;65435.88;4920026;29;20052;-68
2023/03/30 02:04:09;;;;;;;15.27;3.55;;;;;;;-145.50;100.00;65435.88;4923308;29;20102;-69
2023/03/30 02:09:25;;;;;;;7.88;2.35;;;;;;;-145.50;100.00;65435.88;3120061;23;20107;-69
2023/03/30 02:11:52;;;;;;;4.65;2.10;;;;;;;-145.50;100.00;65435.88;4923505;29;20060;-69
2023/03/30 02:14:24;;;;;;;4.78;2.20;;;;;;;-145.50;100.00;65435.88;4919911;28;20052;-69
2023/03/30 02:16:57;;;;;;;8.82;2.20;;;;;;;-145.50;100.00;65435.88;4924640;29;20058;-69
2023/03/30 02:19:23;;;;;;;7.20;2.58;;;;;;;-145.50;100.00;65435.88;4921910;29;20146;-69
2023/03/30 02:21:50;;;;;;;6.38;1.98;;;;;;;-145.50;100.00;65435.88;4919938;29;20084;-69
2023/03/30 02:24:22;;;;;;;4.82;2.00;;;;;;;-145.50;100.00;65435.88;4911720;29;20060;-70
2023/03/30 02:26:51;;;;;;;3.90;1.90;;;;;;;-145.50;100.00;65435.88;4920219;29;20063;-69
2023/03/30 02:29:19;;;;;;;;;;;;;;;-145.50;100.00;65435.88;4931280;29;20735;-70
2023/03/30 02:31:48;;;;;;;8.30;2.00;;;;;;;-145.50;100.00;65435.88;4920051;28;19927;-70
2023/03/30 02:34:26;;;;;;;5.00;2.17;;;;;;;-145.50;100.00;65435.88;4917190;29;20103;-69
2023/03/30 02:37:23;;;;;;;6.85;2.08;;;;;;;-145.50;100.00;65435.88;4917803;29;20056;-71
2023/03/30 02:40:20;;;;;;;6.07;1.95;;;;;;;-145.50;100.00;65435.88;4914073;29;20427;-69
2023/03/30 02:43:21;;;;;;;3.38;1.85;;;;;;;-145.50;100.00;65435.88;4915086;29;20051;-66
2023/03/30 02:46:18;;;;;;;4.88;2.03;;;;;;;-145.50;100.00;65435.88;4909845;29;20416;-65
2023/03/30 02:48:47;;;;;;;6.70;1.92;;;;;;;-145.50;100.00;65435.88;4922501;29;20524;-65
2023/03/30 02:51:31;;;;;;;5.78;2.05;;;;;;;-145.50;100.00;65435.88;4923727;29;20469;-65
2023/03/30 02:54:25;;;;;;;7.15;1.90;;;;;;;-145.50;100.00;65435.88;4917784;29;20059;-66
2023/03/30 02:56:57;;;;;;;4.90;2.40;;;;;;;-145.50;100.00;65435.88;4913997;29;20056;-65
2023/03/30 02:59:36;;;;;;;4.13;1.80;;;;;;;-145.50;100.00;65435.88;4919105;29;20099;-64
2023/03/30 03:02:16;;;;;;;;;;;;;;;-145.50;100.00;65435.88;4926471;28;20055;-73
2023/03/30 03:04:45;;;;;;;6.25;2.17;;;;;;;-145.50;100.00;65435.88;4919107;29;19934;-70
2023/03/30 03:07:13;;;;;;;6.25;1.73;;;;;;;-145.50;100.00;65435.88;4909507;28;20135;-69
2023/03/30 03:09:40;;;;;;;5.80;2.10;;;;;;;-145.50;100.00;65435.88;4911078;29;20064;-71
2023/03/30 03:12:06;;;;;;;6.43;2.22;;;;;;;-145.50;100.00;65435.88;4904278;29;20140;-69
2023/03/30 03:14:33;;;;;;;5.07;1.90;;;;;;;-145.50;100.00;65435.88;4906651;29;20064;-70
2023/03/30 03:16:59;;;;;;;3.97;2.10;;;;;;;-145.50;100.00;65435.88;4908932;29;20056;-70
2023/03/30 03:19:26;;;;;;;5.55;2.13;;;;;;;-145.50;100.00;65435.88;4903226;29;20831;-69
2023/03/30 03:21:52;;;;;;;7.38;2.30;;;;;;;-145.50;100.00;65435.88;4908510;29;20056;-70
2023/03/30 03:24:19;;;;;;;4.03;1.70;;;;;;;-145.50;100.00;65435.88;4903870;29;20056;-70
2023/03/30 03:26:45;;;;;;;6.93;1.90;;;;;;;-145.50;100.00;65435.88;4905877;29;20062;-70
2023/03/30 03:29:12;;;;;;;5.72;2.17;;;;;;;-145.50;100.00;65435.88;4909974;29;20104;-69
2023/03/30 03:31:38;;;;;;;3.63;1.67;;;;;;;-145.50;100.00;65435.88;4903249;29;20135;-70
2023/03/30 03:34:05;;;;;;;9.55;2.63;;;;;;;-145.50;100.00;65435.88;4906892;29;20056;-70
2023/03/30 03:36:32;;;;;;;5.63;2.10;;;;;;;-145.50;100.00;65435.88;4904294;29;20519;-70
2023/03/30 03:38:59;;;;;;;9.80;1.83;;;;;;;-145.50;100.00;65435.88;4903694;29;20052;-69
2023/03/30 03:41:25;;;;;;;5.55;1.83;;;;;;;-145.50;100.00;65435.88;4897097;29;20143;-69
2023/03/30 03:43:52;;;;;;;5.95;1.65;;;;;;;-145.50;100.00;65435.88;4913114;29;20515;-69
2023/03/30 03:46:18;;;;;;;6.53;1.95;;;;;;;-145.50;100.00;65435.88;4909174;29;20063;-70
2023/03/30 03:48:45;;;;;;;5.57;1.55;;;;;;;-145.50;100.00;65435.88;4901578;29;20052;-70
2023/03/30 03:51:11;;;;;;;8.07;1.80;;;;;;;-145.50;100.00;65435.88;4915456;29;20047;-70
2023/03/30 03:53:38;;;;;;;3.95;1.45;;;;;;;-145.50;100.00;65435.88;4902004;29;20071;-69
2023/03/30 03:56:04;;;;;;;3.72;1.42;;;;;;;-145.50;100.00;65435.88;4910158;29;20047;-70
2023/03/30 03:58:31;;;;;;;7.15;1.95;;;;;;;-145.50;100.00;65435.88;4914628;29;20532;-69
2023/03/30 04:00:59;;;;;;;6.57;1.50;;;;;;;-145.50;100.00;65435.88;4898665;29;20056;-70
2023/03/30 04:03:26;;;;;;;4.18;1.38;;;;;;;-145.50;100.00;65435.88;4909656;29;20067;-70
2023/03/30 04:05:53;;;;;;;7.10;1.63;;;;;;;-145.50;100.00;65435.88;4904046;29;20056;-70
2023/03/30 04:08:20;;;;;;;3.28;1.15;;;;;;;-145.50;100.00;65435.88;4905001;29;20071;-70
2023/03/30 04:10:46;;;;;;;3.17;1.08;;;;;;;-145.50;100.00;65435.88;4898707;29;20063;-70
2023/03/30 04:13:13;;;;;;;4.00;1.52;;;;;;;-145.50;100.00;65435.88;4913593;29;20058;-70
2023/03/30 04:15:39;;;;;;;4.20;1.35;;;;;;;-145.50;100.00;65435.88;4916847;29;20056;-70
2023/03/30 04:18:07;;;;;;;7.15;1.30;;;;;;;-145.50;100.00;65435.88;4901591;29;20052;-70
2023/03/30 04:20:34;;;;;;;2.67;1.20;;;;;;;-145.50;100.00;65435.88;4910060;29;20112;-70
2023/03/30 04:23:03;;;;;;;2.25;1.00;;;;;;;-145.50;100.00;65435.88;4896731;29;20092;-70
2023/03/30 04:25:29;;;;;;;4.60;1.45;;;;;;;-145.50;100.00;65435.88;4909800;29;20511;-70
2023/03/30 04:27:56;;;;;;;2.33;0.98;;;;;;;-145.50;100.00;65435.88;4906056;29;20527;-69
2023/03/30 04:30:23;;;;;;;3.55;1.20;;;;;;;-145.50;100.00;65435.88;4909422;29;20564;-70
2023/03/30 04:33:01;;;;;;;2.42;1.30;;;;;;;-145.50;100.00;65435.88;4908822;29;20135;-70
2023/03/30 04:35:30;;;;;;;5.95;1.27;;;;;;;-145.50;100.00;65435.88;4898964;29;20052;-70
2023/03/30 04:37:57;;;;;;;2.50;1.13;;;;;;;-145.50;100.00;65435.88;4891996;29;20048;-70
2023/03/30 04:40:23;;;;;;;4.72;1.33;;;;;;;-145.50;100.00;65435.88;4905850;29;20898;-70
2023/03/30 04:42:50;;;;;;;7.80;1.58;;;;;;;-145.50;100.00;65435.88;4909242;29;20060;-70
2023/03/30 04:45:19;;;;;;;5.20;1.85;;;;;;;-145.50;100.00;65435.88;4906082;29;20063;-69
2023/03/30 04:47:46;;;;;;;5.53;1.27;;;;;;;-145.50;100.00;65435.88;4907237;29;20836;-70
2023/03/30 04:50:13;;;;;;;2.95;1.15;;;;;;;-145.50;100.00;65435.88;4903245;29;20560;-70
2023/03/30 04:52:40;;;;;;;8.52;1.60;;;;;;;-145.50;100.00;65435.88;4898895;29;20060;-69
2023/03/30 04:55:08;;;;;;;5.95;1.40;;;;;;;-145.50;100.00;65435.88;4909946;29;20538;-70
2023/03/30 04:57:35;;;;;;;10.98;1.70;;;;;;;-145.50;100.00;65435.88;4901349;29;20060;-70
2023/03/30 05:00:06;;;;;;;6.20;1.20;;;;;;;-145.50;100.00;65435.88;4912875;29;20063;-70
2023/03/30 05:02:33;;;;;;;5.10;1.80;;;;;;;-145.50;100.00;65435.88;4912722;29;20144;-70
2023/03/30 05:04:59;;;;;;;5.30;1.55;;;;;;;-145.50;100.00;65435.88;4898328;29;20059;-69
2023/03/30 05:07:26;;;;;;;4.35;1.55;;;;;;;-145.50;100.00;65435.88;4909379;29;20549;-70
2023/03/30 05:09:53;;;;;;;9.93;2.03;;;;;;;-145.50;100.00;65435.88;4908664;29;20548;-70
2023/03/30 05:12:19;;;;;;;5.97;1.80;;;;;;;-145.50;100.00;65435.88;4913472;29;20531;-71
2023/03/30 05:14:46;;;;;;;6.72;1.80;;;;;;;-145.50;100.00;65435.88;4907334;29;20102;-71
2023/03/30 05:17:12;;;;;;;7.32;1.80;;;;;;;-145.50;100.00;65435.88;4908938;29;20062;-72
2023/03/30 05:19:39;;;;;;;5.80;1.98;;;;;;;-145.50;100.00;65435.88;4907239;29;20072;-71
2023/03/30 05:22:06;;;;;;;7.93;2.10;;;;;;;-145.50;100.00;65435.88;4907729;29;20524;-70
2023/03/30 05:24:33;;;;;;;4.53;2.22;;;;;;;-145.50;100.00;65435.88;4912909;29;20056;-71
2023/03/30 05:27:01;;;;;;;6.90;2.40;;;;;;;-145.50;100.00;65435.88;4906165;29;20048;-71
2023/03/30 05:29:27;;;;;;;4.88;2.25;;;;;;;-145.50;100.00;65435.88;4913344;29;20088;-70
2023/03/30 05:31:54;;;;;;;8.25;2.30;;;;;;;-145.50;100.00;65435.88;4902722;29;20094;-72
2023/03/30 05:34:20;;;;;;;5.72;2.55;;;;;;;-145.50;100.00;65435.88;4907378;29;20056;-72
2023/03/30 05:36:47;;;;;;;8.38;3.22;;;;;;;-145.50;100.00;65435.88;4912450;29;20115;-71
2023/03/30 05:39:14;;;;;;;6.28;2.65;;;;;;;-145.50;100.00;65435.88;4911792;29;20052;-72
2023/03/30 05:41:40;;;;;;;5.75;2.90;;;;;;;-145.50;100.00;65435.88;4912883;29;20519;-72
2023/03/30 05:44:07;;;;;;;5.50;2.50;;;;;;;-145.50;100.00;65435.88;4907419;29;20798;-70
2023/03/30 05:46:33;;;;;;;8.65;2.72;;;;;;;-145.50;100.00;65435.88;4902556;29;20449;-71
2023/03/30 05:49:00;;;;;;;8.65;3.00;;;;;;;-145.50;100.00;65435.88;4912611;29;20112;-72
2023/03/30 05:51:26;;;;;;;10.18;3.80;;;;;;;-145.50;100.00;65435.88;4906759;29;20064;-71
2023/03/30 05:53:53;;;;;;;7.28;2.88;;;;;;;-145.50;100.00;65435.88;4912514;29;20171;-71
2023/03/30 05:56:20;;;;;;;8.85;3.38;;;;;;;-145.50;100.00;65435.88;4903267;29;20067;-70
2023/03/30 05:58:47;;;;;;;10.15;3.17;;;;;;;-145.50;100.00;65435.88;4910543;29;20132;-71
2023/03/30 06:01:13;;;;;;;10.25;3.47;;;;;;;-145.50;100.00;65435.88;4898989;29;20140;-71
2023/03/30 06:03:40;;;;;;;8.73;3.40;;;;;;;-145.50;100.00;65435.88;4910996;29;20056;-71
2023/03/30 06:06:08;;;;;;;6.25;2.50;;;;;;;-145.50;100.00;65435.88;4912477;29;20520;-71
2023/03/30 06:08:34;;;;;;;8.30;2.67;;;;;;;-145.50;100.00;65435.88;4908114;29;20048;-71
2023/03/30 06:11:01;;;;;;;7.15;2.55;;;;;;;-145.50;100.00;65435.88;4911604;29;20089;-71
2023/03/30 06:13:28;;;;;;;8.65;2.80;;;;;;;-145.50;100.00;65435.88;4905180;29;20111;-71
2023/03/30 06:15:55;;;;;;;9.15;2.50;;;;;;;-145.50;100.00;65435.88;4907378;29;20108;-70
2023/03/30 06:18:22;;;;;;;6.97;2.10;;;;;;;-145.50;100.00;65435.88;4907083;29;20138;-71
2023/03/30 06:20:51;;;;;;;4.90;2.10;;;;;;;-145.50;100.00;65435.88;4911475;29;20127;-71
2023/03/30 06:23:21;;;;;;;6.80;2.60;;;;;;;-145.50;100.00;65435.88;4914064;29;20423;-71
2023/03/30 06:25:51;;;;;;;5.35;2.05;;;;;;;-145.50;100.00;65435.88;4905438;29;20052;-70
2023/03/30 06:28:19;;;;;;;8.52;2.22;;;;;;;-145.50;100.00;65435.88;4904190;29;20056;-71
2023/03/30 06:30:47;;;;;;;9.55;2.30;;;;;;;-145.50;100.00;65435.88;4899649;29;20112;-71
2023/03/30 06:33:17;;;;;;;11.88;2.30;;;;;;;-145.50;100.00;65435.88;4911335;29;20098;-71
2023/03/30 06:35:49;;;;;;;9.38;2.60;;;;;;;-145.50;100.00;65435.88;4901669;29;20048;-71
2023/03/30 06:38:17;;;;;;;7.63;2.67;;;;;;;-145.50;100.00;65435.88;4910807;29;20078;-71
2023/03/30 06:40:44;;;;;;;9.80;2.17;;;;;;;-145.50;100.00;65435.88;4922194;29;20131;-71
2023/03/30 06:43:19;;;;;;;8.18;2.40;;;;;;;-145.50;100.00;65435.88;4895102;29;20505;-71
2023/03/30 06:45:50;;;;;;;7.72;2.97;;;;;;;-145.50;100.00;65435.88;4914190;29;20077;-73
2023/03/30 06:48:19;;;;;;;10.02;2.55;;;;;;;-145.50;100.00;65435.88;4904726;29;20372;-73
2023/03/30 06:50:46;;;;;;;9.05;2.40;;;;;;;-145.50;100.00;65435.88;4911498;29;20454;-73
2023/03/30 06:53:13;;;;;;;10.35;3.05;;;;;;;-145.50;100.00;65435.88;4912276;29;20075;-74
2023/03/30 06:55:44;;;;;;;10.35;3.00;;;;;;;-145.50;100.00;65435.88;4917401;29;20496;-73
2023/03/30 06:58:12;;;;;;;12.57;2.57;;;;;;;-145.50;100.00;65435.88;4905204;29;20067;-74
2023/03/30 07:00:39;;;;;;;6.47;2.25;;;;;;;-145.50;100.00;65435.88;4900601;28;20623;-73
2023/03/30 07:03:09;;;;;;;11.38;2.28;;;;;;;-145.50;100.00;65435.88;4911153;29;20135;-71
2023/03/30 07:05:38;;;;;;;10.75;3.00;;;;;;;-145.50;100.00;65435.88;4904026;29;20076;-72
2023/03/30 07:08:06;;;;;;;11.57;3.05;;;;;;;-145.50;100.00;65435.88;4910943;29;20139;-72
2023/03/30 07:10:33;;;;;;;10.60;3.70;;;;;;;-145.50;100.00;65435.88;4906345;29;20119;-71
2023/03/30 07:13:00;;;;;;;8.02;2.35;;;;;;;-145.50;100.00;65435.88;4902193;29;20048;-71
2023/03/30 07:15:26;;;;;;;9.70;2.30;;;;;;;-145.50;100.00;65435.88;4910438;29;20056;-72
2023/03/30 07:17:53;;;;;;;13.63;2.67;;;;;;;-145.50;100.00;65435.88;4904499;29;20068;-71
2023/03/30 07:20:20;;;;;;;9.40;2.08;;;;;;;-145.50;100.00;65435.88;4910511;29;20051;-72
2023/03/30 07:22:52;;;;;;;7.75;2.30;;;;;;;-145.50;100.00;65435.88;4906840;29;20134;-71
2023/03/30 07:25:21;;;;;;;10.27;2.47;;;;;;;-145.50;100.00;65435.88;4901284;29;20133;-72
2023/03/30 07:27:49;;;;;;;9.50;2.10;;;;;;;-145.50;100.00;65435.88;4897388;29;20059;-70
2023/03/30 07:30:15;;;;;;;10.43;2.40;;;;;;;-145.50;100.00;65435.88;4905783;29;20052;-71
2023/03/30 07:32:49;;;;;;;6.93;2.13;;;;;;;-145.50;100.00;65435.88;4909431;29;20048;-71
2023/03/30 07:35:17;;;;;;;11.77;2.38;;;;;;;-145.50;100.00;65435.88;4904870;29;20076;-71
2023/03/30 07:37:43;;;;;;;12.30;2.75;;;;;;;-145.50;100.00;65435.88;4910747;29;20059;-70
2023/03/30 07:40:11;;;;;;;9.45;2.28;;;;;;;-145.50;100.00;65435.88;4892569;29;20710;-71
2023/03/30 07:42:38;;;;;;;8.75;2.03;;;;;;;-145.50;100.00;65435.88;4905714;29;20055;-71
2023/03/30 07:45:05;;;;;;;9.18;2.60;;;;;;;-145.50;100.00;65435.88;4901377;29;20394;-71
2023/03/30 07:47:32;;;;;;;10.85;2.35;;;;;;;-145.50;100.00;65435.88;4906438;29;20075;-71
2023/03/30 07:49:59;;;;;;;6.93;2.00;;;;;;;-145.50;100.00;65435.88;4910053;29;20052;-71
2023/03/30 07:52:26;;;;;;;11.93;2.75;;;;;;;-145.50;100.00;65435.88;4901873;29;20048;-70
2023/03/30 07:54:53;;;;;;;9.10;1.48;;;;;;;-145.50;100.00;65435.88;4905656;29;20062;-70
2023/03/30 07:57:20;;;;;;;11.75;2.30;;;;;;;-145.50;100.00;65435.88;4898785;29;20059;-71
2023/03/30 07:59:48;;;;;;;12.23;2.53;;;;;;;-145.50;100.00;65435.88;4910518;29;20655;-71
2023/03/30 08:02:15;;;;;;;10.93;2.28;;;;;;;-145.50;100.00;65435.88;4910092;29;20461;-70
2023/03/30 08:04:43;;;;;;;10.57;2.13;;;;;;;-145.50;100.00;65435.88;4902856;29;20052;-71
2023/03/30 08:07:10;;;;;;;12.32;2.35;;;;;;;-145.50;100.00;65435.88;4905742;29;20135;-71
2023/03/30 08:09:37;;;;;;;9.10;2.35;;;;;;;-145.50;100.00;65435.88;4899336;29;20637;-70
2023/03/30 08:12:03;;;;;;;15.90;2.85;;;;;;;-145.50;100.00;65435.88;4899628;29;20060;-71
2023/03/30 08:14:30;;;;;;;9.18;2.13;;;;;;;-145.50;100.00;65435.88;4903303;29;20056;-71
2023/03/30 08:16:57;;;;;;;17.13;2.55;;;;;;;-145.50;100.00;65435.88;4908893;29;20079;-72
2023/03/30 08:19:24;;;;;;;12.38;2.13;;;;;;;-145.50;100.00;65435.88;4909869;29;20052;-71
2023/03/30 08:21:50;;;;;;;16.15;3.10;;;;;;;-145.50;100.00;65435.88;4895953;29;20145;-72
2023/03/30 08:24:17;;;;;;;12.45;2.22;;;;;;;-145.50;100.00;65435.88;4912130;29;20074;-72
2023/03/30 08:26:43;;;;;;;17.98;2.30;;;;;;;-145.50;100.00;65435.88;4901595;29;20071;-71
2023/03/30 08:29:11;;;;;;;15.00;2.30;;;;;;;-145.50;100.00;65435.88;4909450;29;20055;-71
2023/03/30 08:31:38;;;;;;;9.52;2.28;;;;;;;-145.50;100.00;65435.88;4902490;29;20054;-71
2023/03/30 08:34:06;;;;;;;12.10;2.20;;;;;;;-145.50;100.00;65435.88;4907205;29;20056;-71
2023/03/30 08:36:33;;;;;;;19.35;2.88;;;;;;;-145.50;100.00;65435.88;4902388;29;20054;-71
2023/03/30 08:38:59;;;;;;;13.38;2.58;;;;;;;-145.50;100.00;65435.88;4907752;29;20085;-71
2023/03/30 08:41:30;;;;;;;9.77;2.22;;;;;;;-145.50;100.00;65435.88;4908744;29;20060;-71
2023/03/30 08:44:07;;;;;;;15.45;2.47;;;;;;;-145.50;100.00;65435.88;4917617;28;20095;-71
2023/03/30 08:46:34;;;;;;;12.77;2.03;;;;;;;-145.50;100.00;65435.88;4908852;29;20591;-71
2023/03/30 08:49:05;;;;;;;18.25;2.80;;;;;;;-145.50;100.00;65435.88;4900576;29;20055;-70
2023/03/30 08:51:34;;;;;;;12.45;2.05;;;;;;;-145.50;100.00;65435.88;4906008;29;20107;-71
2023/03/30 08:54:05;;;;;;;12.30;2.05;;;;;;;-145.50;100.00;65435.88;4909583;29;20056;-71
2023/03/30 08:56:38;;;;;;;14.15;2.20;;;;;;;-145.50;100.00;65435.88;5027452;23;20308;-67
2023/03/30 08:59:25;;;;;;;14.70;3.10;;;;;;;-145.50;100.00;65435.88;4957286;28;20043;-66
2023/03/30 09:01:58;;;;;;;12.93;2.63;;;;;;;-145.50;100.00;65435.88;4939008;28;20063;-67
2023/03/30 09:04:56;;;;;;;12.95;2.45;;;;;;;-145.50;100.00;65435.88;4923293;28;20059;-67
2023/03/30 09:07:24;;;;;;;;;;;;;;;-145.50;100.00;65435.88;4946041;28;20530;-67
2023/03/30 09:09:52;;;;;;;;;;;;;;;-145.50;100.00;65435.88;4947605;28;20362;-67
2023/03/30 09:12:30;;;;;;;17.75;2.53;;;;;;;-145.50;100.00;65435.88;4941353;28;19926;-66
2023/03/30 09:15:02;;;;;;;13.27;2.60;;;;;;;-145.50;100.00;65435.88;4942732;28;20659;-68
2023/03/30 09:17:36;;;;;;;16.08;2.58;;;;;;;-145.50;100.00;65435.88;4925959;28;20055;-67
2023/03/30 09:20:11;;;;;;;16.58;2.95;;;;;;;-145.50;100.00;65435.88;4944464;28;20523;-67
2023/03/30 09:22:41;;;;;;;14.20;2.53;;;;;;;-145.50;100.00;65435.88;4949571;28;20055;-67
2023/03/30 09:25:14;;;;;;;12.57;2.08;;;;;;;-145.50;100.00;65435.88;4944440;28;20059;-68
2023/03/30 09:28:11;;;;;;;11.77;2.17;;;;;;;-145.50;100.00;65435.88;4946714;28;20051;-67
2023/03/30 09:30:55;;;;;;;17.33;2.77;;;;;;;-145.50;100.00;65435.88;4918700;28;20055;-68
2023/03/30 09:33:42;;;;;;;11.80;2.58;;;;;;;-145.50;100.00;65435.88;4949795;28;20082;-67
2023/03/30 09:36:16;;;;;;;16.10;3.10;;;;;;;-145.50;100.00;65435.88;4933866;28;20059;-67
2023/03/30 09:38:44;;;;;;;15.57;2.70;;;;;;;-145.50;100.00;65435.88;4945790;28;20051;-67
2023/03/30 09:41:29;;;;;;;13.77;2.63;;;;;;;-145.50;100.00;65435.88;4941496;28;20051;-67
2023/03/30 09:43:57;;;;;;;14.18;2.92;;;;;;;-145.50;100.00;65435.88;4950890;28;20066;-67
2023/03/30 09:46:24;;;;;;;18.75;3.42;;;;;;;-145.50;100.00;65435.88;4939332;28;20057;-67
2023/03/30 09:48:50;;;;;;;13.68;2.80;;;;;;;-145.50;100.00;65435.88;4958695;28;20051;-67
2023/03/30 09:51:26;;;;;;;18.63;3.17;;;;;;;-145.50;100.00;65435.88;4945820;28;20059;-67
2023/03/30 09:54:05;;;;;;;13.25;2.55;;;;;;;-145.50;100.00;65435.88;4945548;28;20057;-67
2023/03/30 09:56:45;;;;;;;21.42;4.90;;;;;;;-145.50;100.00;65435.88;4948458;28;20118;-67
2023/03/30 09:59:26;;;;;;;20.27;3.80;;;;;;;-145.50;100.00;65435.88;4917412;29;20427;-69
2023/03/30 10:02:16;;;;;;;18.63;2.80;;;;;;;-145.50;100.00;65435.88;4933746;29;20058;-67
2023/03/30 10:04:52;;;;;;;18.92;3.40;;;;;;;-145.50;100.00;65435.88;4922906;28;20051;-67
2023/03/30 10:07:29;;;;;;;13.80;2.97;;;;;;;-145.50;100.00;65435.88;4922834;29;20135;-67
2023/03/30 10:09:58;;;;;;;14.88;2.60;;;;;;;-145.50;100.00;65435.88;4924413;29;20647;-67
2023/03/30 10:12:27;;;;;;;18.98;3.38;;;;;;;-145.50;100.00;65435.88;4926904;29;20150;-69
2023/03/30 10:14:55;;;;;;;20.95;3.58;;;;;;;-145.50;100.00;65435.88;4920428;29;20048;-67
2023/03/30 10:17:24;;;;;;;13.07;2.67;;;;;;;-145.50;100.00;65435.88;4939594;29;20063;-67
2023/03/30 10:19:53;;;;;;;15.48;3.22;;;;;;;-145.50;100.00;65435.88;4930330;29;20051;-67
2023/03/30 10:22:48;;;;;;;14.52;3.17;;;;;;;-145.50;100.00;65435.88;4931933;29;20159;-69
2023/03/30 10:25:20;;;;;;;18.75;4.15;;;;;;;-145.50;100.00;65435.88;4927324;29;20057;-68
2023/03/30 10:27:49;;;;;;;19.10;3.03;;;;;;;-145.50;100.00;65435.88;4905418;29;20526;-68
2023/03/30 10:30:23;;;;;;;20.30;3.40;;;;;;;-145.50;100.00;65435.88;4937130;29;20071;-67
2023/03/30 10:32:51;;;;;;;13.80;3.00;;;;;;;-145.50;100.00;65435.88;4931657;29;20055;-68
2023/03/30 10:35:20;;;;;;;;;;;;;;;-145.50;100.00;65435.88;4937124;29;20465;-68
2023/03/30 10:37:51;;;;;;;16.38;3.13;;;;;;;-145.50;100.00;65435.88;4923519;29;19926;-67
2023/03/30 10:40:22;;;;;;;19.10;3.67;;;;;;;-145.50;100.00;65435.88;4929353;29;20051;-67
2023/03/30 10:42:54;;;;;;;12.00;3.08;;;;;;;-145.50;100.00;65435.88;4936556;29;20103;-67
2023/03/30 10:45:45;;;;;;;17.25;4.07;;;;;;;-145.50;100.00;65435.88;4925190;29;20457;-68
2023/03/30 10:48:40;;;;;;;17.27;3.45;;;;;;;-145.50;100.00;65435.88;4937325;29;20058;-68
2023/03/30 10:51:20;;;;;;;19.80;3.28;;;;;;;-145.50;100.00;65435.88;4927017;29;20055;-69
2023/03/30 10:54:11;;;;;;;17.98;4.47;;;;;;;-145.50;100.00;65435.88;4923575;29;20132;-68
2023/03/30 10:56:48;;;;;;;16.63;3.25;;;;;;;-145.50;100.00;65435.88;4913229;29;20115;-68
2023/03/30 10:59:42;;;;;;;20.17;4.57;;;;;;;-145.50;100.00;65435.88;4929918;29;20051;-68
2023/03/30 11:02:33;;;;;;;14.65;3.78;;;;;;;-145.50;100.00;65435.88;4920117;28;20048;-67
2023/03/30 11:05:11;;;;;;;16.90;3.50;;;;;;;-145.50;100.00;65435.88;4909233;29;20051;-68
2023/03/30 11:07:58;;;;;;;17.65;3.72;;;;;;;-145.50;100.00;65435.88;4901190;29;20057;-67
2023/03/30 11:10:30;;;;;;;22.92;3.63;;;;;;;-145.50;100.00;65435.88;4919709;29;20481;-69
2023/03/30 11:13:05;;;;;;;20.80;4.05;;;;;;;-145.50;100.00;65435.88;4924580;29;20056;-67
2023/03/30 11:15:48;;;;;;;17.55;4.35;;;;;;;-145.50;100.00;65435.88;4930105;29;20059;-66
2023/03/30 11:18:41;;;;;;;18.85;3.85;;;;;;;-145.50;100.00;65435.88;4908058;29;20055;-68
2023/03/30 11:21:19;;;;;;;18.70;3.72;;;;;;;-145.50;100.00;65435.88;4922618;29;20052;-68
2023/03/30 11:23:54;;;;;;;16.42;4.22;;;;;;;-145.50;100.00;65435.88;4907347;29;20059;-66
2023/03/30 11:26:36;;;;;;;16.42;3.63;;;;;;;-145.50;100.00;65435.88;4928202;29;20079;-68
2023/03/30 11:29:25;;;;;;;18.85;4.20;;;;;;;-145.50;100.00;65435.88;4924510;29;20551;-66